Liberty Township, Ohio
Current Conditions -  °F | °C
As of 7:53 PM on Saturday 22 Nov 2014 (Local Time) from KMGY Reporting Station
Overcast Overcast  
Wind Chill: 52°   Ceiling: 8000
Heat Index: 52°   Visibility: 10mi
Dew Point: 37°   Wind: 10mph
Humidity: 57%   Direction: 190°S
Pressure: 30.07"   Gusts: NA
Location:  39.4452°N, 84.2185°W
Report Text: KMGY 230053Z AUTO 19009KT 10SM SCT060 BKN080 OVC100 11/03 A3007 RMK AO2 SLP185 T01110028
Loading
Personal Weather Stations






























Interactive Weather Map New forecast layout! Learn more

10-Day Weather Forecast

Advertisements
Track Severe Weather on mobile